首页
METAR-TAF:

METAR-TAF

机场 :

洛迦诺, 瑞士

纬度: 46-09-55N, 经度: 8-52-40E, 海拔: 198米

当前天气观测

该预报发布于35分钟前的09:50 UTC
风速7节,风向西转西南
温度 7°C
湿度 93%
气压 1014 hPa
能見度: 5000
散云层高于3000英尺
阴天层高于3900英尺

METAR: LSZL 220950Z 25007KT 5000 RA SCT030 OVC039 07/06 Q1014 RMK WHT

时间: 11:25 (10:25 UTC)

预报

该预报发布于5小时和0分钟前的05:25 UTC
预报有效从22日的 06点(UTC)到 22日的 15点(UTC)
风速3节,风向多变
能见度10公里或以上
少量云层高于1100英尺
散云层高于3000英尺
多云层高于3500英尺
小雨
短暂存在
从 22日的 06点(UTC)到 22日的 15点(UTC)
能見度: 4000
多云层高于1400英尺

TAF: LSZL 220525Z 2206/2215 VRB03KT 9999 -RA FEW011 SCT030 BKN035 TEMPO 2206/2215 4000 RA BKN014

超过4000个机场的气象观测和天气预报(METAR&TAF报告)。

可查询的气象台以黄色和红色小点在地图上表示。

将鼠标移到小点上方,可查看气象台名称。

然后点击查看天气观测和预报。

如需切换地图:点击带黑十字的绿色按钮放大地图;点击带横线的绿色按钮缩小地图;或者点击绿色箭头查看邻近地区的地图。


METAR-TAF: